createdAt,value
2022-11-04T00:02:09.185Z,412.73
2022-11-04T00:04:36.520Z,403.27
2022-11-04T00:07:23.198Z,413.13
2022-11-04T00:09:49.843Z,406.35
2022-11-04T00:12:25.378Z,416.15
2022-11-04T00:14:52.043Z,424.02
2022-11-04T00:17:24.523Z,424.48
2022-11-04T00:20:12.393Z,417.70
2022-11-04T00:22:59.565Z,420.90
2022-11-04T00:25:44.888Z,423.98
2022-11-04T00:28:35.716Z,408.08
2022-11-04T00:31:24.123Z,407.93
2022-11-04T00:33:52.903Z,410.00
2022-11-04T00:36:20.232Z,411.58
2022-11-04T00:38:47.156Z,411.97
2022-11-04T00:41:26.863Z,402.83
2022-11-04T00:43:54.482Z,412.05
2022-11-04T00:46:21.383Z,415.15
2022-11-04T00:48:48.338Z,413.83
2022-11-04T00:51:15.305Z,417.13
2022-11-04T00:53:41.991Z,415.67
2022-11-04T00:56:08.595Z,416.70
2022-11-04T00:58:35.195Z,413.77
2022-11-04T01:01:07.974Z,413.25
2022-11-04T01:03:34.676Z,411.55
2022-11-04T01:06:01.255Z,406.65
2022-11-04T01:08:27.869Z,407.90
2022-11-04T01:10:54.517Z,402.92
2022-11-04T01:13:21.115Z,408.50
2022-11-04T01:15:47.908Z,411.73
2022-11-04T01:18:14.711Z,402.48
2022-11-04T01:20:41.322Z,412.45
2022-11-04T01:23:07.857Z,405.13
2022-11-04T01:25:34.633Z,407.80
2022-11-04T01:28:01.229Z,417.83
2022-11-04T01:30:27.775Z,417.75
2022-11-04T01:32:54.391Z,414.85
2022-11-04T01:35:21.040Z,418.75
2022-11-04T01:37:47.616Z,419.40
2022-11-04T01:40:14.238Z,416.23
2022-11-04T01:42:40.879Z,413.63
2022-11-04T01:45:14.775Z,404.70
2022-11-04T01:47:44.677Z,409.17
2022-11-04T01:50:16.042Z,407.40
2022-11-04T01:52:48.710Z,407.67
2022-11-04T01:55:26.063Z,409.15
2022-11-04T01:57:58.624Z,420.85
2022-11-04T02:00:25.305Z,426.02
2022-11-04T02:02:59.106Z,429.73
2022-11-04T02:05:26.068Z,423.85
2022-11-04T02:07:57.994Z,421.48
2022-11-04T02:10:30.263Z,420.45
2022-11-04T02:13:00.021Z,421.38
2022-11-04T02:15:41.952Z,415.08
2022-11-04T02:18:17.680Z,415.10
2022-11-04T02:21:11.654Z,415.15
2022-11-04T02:24:10.452Z,417.73
2022-11-04T02:27:03.919Z,418.63
2022-11-04T02:29:45.269Z,411.63
2022-11-04T02:32:36.213Z,416.33
2022-11-04T02:35:36.370Z,411.30
2022-11-04T02:38:29.444Z,418.25
2022-11-04T02:41:22.278Z,422.47
2022-11-04T02:44:17.988Z,419.38
2022-11-04T02:47:00.155Z,415.00
2022-11-04T02:49:41.625Z,419.25
2022-11-04T02:52:16.267Z,414.33
2022-11-04T02:54:52.963Z,414.83
2022-11-04T02:57:24.359Z,414.67
2022-11-04T03:00:01.316Z,414.67
2022-11-04T03:02:39.417Z,412.95
2022-11-04T03:05:09.293Z,406.63
2022-11-04T03:07:40.383Z,414.90
2022-11-04T03:10:22.854Z,421.95
2022-11-04T03:13:02.416Z,409.38
2022-11-04T03:15:33.839Z,415.67
2022-11-04T03:18:28.204Z,421.23
2022-11-04T03:20:58.347Z,417.00
2022-11-04T03:23:24.904Z,423.67
2022-11-04T03:25:56.617Z,425.75
2022-11-04T03:28:55.320Z,420.20
2022-11-04T03:31:38.734Z,417.88
2022-11-04T03:34:05.686Z,411.27
2022-11-04T03:36:32.425Z,419.40
2022-11-04T03:38:59.049Z,415.20
2022-11-04T03:41:35.499Z,418.80
2022-11-04T03:44:02.178Z,420.80
2022-11-04T03:46:29.064Z,416.17
2022-11-04T03:48:56.592Z,430.05
2022-11-04T03:51:23.163Z,430.70
2022-11-04T03:53:49.815Z,422.33
2022-11-04T03:56:31.613Z,421.05
2022-11-04T03:59:38.942Z,416.65
2022-11-04T04:02:22.639Z,424.75
2022-11-04T04:05:15.997Z,429.02
2022-11-04T04:07:52.580Z,422.58
2022-11-04T04:10:40.807Z,422.45
2022-11-04T04:13:19.270Z,421.13
2022-11-04T04:16:03.350Z,420.33
2022-11-04T04:18:36.301Z,415.25
2022-11-04T04:21:06.928Z,421.45
2022-11-04T04:23:54.198Z,424.90
2022-11-04T04:26:42.292Z,415.38
2022-11-04T04:29:10.368Z,415.08
2022-11-04T04:31:51.003Z,412.50
2022-11-04T04:34:21.609Z,409.42
2022-11-04T04:37:09.142Z,407.63
2022-11-04T04:40:23.856Z,417.27
2022-11-04T04:43:11.427Z,417.13
2022-11-04T04:45:42.311Z,424.05
2022-11-04T04:48:11.950Z,427.58
2022-11-04T04:50:42.493Z,427.27
2022-11-04T04:53:09.553Z,430.83
2022-11-04T04:55:40.654Z,422.45
2022-11-04T04:58:09.242Z,430.70
2022-11-04T05:00:35.771Z,439.67
2022-11-04T05:03:02.387Z,420.57
2022-11-04T05:05:28.953Z,415.55
2022-11-04T05:07:55.594Z,424.48
2022-11-04T05:10:22.183Z,420.23
2022-11-04T05:13:07.213Z,434.63
2022-11-04T05:15:34.767Z,430.50
2022-11-04T05:18:03.559Z,431.05
2022-11-04T05:20:32.871Z,434.50
2022-11-04T05:23:00.063Z,429.48
2022-11-04T05:25:42.379Z,434.23
2022-11-04T05:28:09.759Z,434.25
2022-11-04T05:30:37.921Z,434.67
2022-11-04T05:33:05.253Z,433.67
2022-11-04T05:35:34.793Z,432.17
2022-11-04T05:38:01.373Z,429.55
2022-11-04T05:40:27.921Z,426.30
2022-11-04T05:42:57.776Z,439.30
2022-11-04T05:45:24.451Z,438.15
2022-11-04T05:47:58.406Z,435.10
2022-11-04T05:50:25.237Z,449.13
2022-11-04T05:52:51.904Z,436.95
2022-11-04T05:55:18.647Z,434.48
2022-11-04T05:57:45.262Z,425.75
2022-11-04T06:00:13.873Z,432.88
2022-11-04T06:02:40.722Z,430.70
2022-11-04T06:05:08.168Z,434.83
2022-11-04T06:07:36.006Z,441.45
2022-11-04T06:10:02.892Z,445.63
2022-11-04T06:12:29.486Z,438.33
2022-11-04T06:14:56.047Z,441.45
2022-11-04T06:17:23.013Z,442.77
2022-11-04T06:19:50.113Z,431.58
2022-11-04T06:22:19.387Z,432.83
2022-11-04T06:24:46.327Z,428.27
2022-11-04T06:27:16.049Z,426.15
2022-11-04T06:29:44.355Z,431.02
2022-11-04T06:32:17.427Z,424.10
2022-11-04T06:34:46.045Z,411.90
2022-11-04T06:37:13.813Z,414.65
2022-11-04T06:39:40.565Z,411.98
2022-11-04T06:42:07.202Z,422.83
2022-11-04T06:44:37.019Z,427.83
2022-11-04T06:47:06.133Z,422.77
2022-11-04T06:49:33.759Z,419.10
2022-11-04T06:52:02.769Z,410.20
2022-11-04T06:54:30.253Z,408.63
2022-11-04T06:56:58.796Z,415.77
2022-11-04T06:59:25.452Z,418.23
2022-11-04T07:01:52.528Z,426.17
2022-11-04T07:04:19.498Z,432.88
2022-11-04T07:06:46.754Z,430.65
2022-11-04T07:09:15.283Z,429.57
2022-11-04T07:11:43.386Z,434.98
2022-11-04T07:14:10.972Z,429.90
2022-11-04T07:16:37.586Z,429.33
2022-11-04T07:19:04.874Z,430.80
2022-11-04T07:21:31.604Z,423.10
2022-11-04T07:23:58.411Z,422.60
2022-11-04T07:26:25.277Z,416.75
2022-11-04T07:28:51.860Z,416.67
2022-11-04T07:31:18.583Z,425.45
2022-11-04T07:33:49.950Z,428.85
2022-11-04T07:36:17.425Z,428.03
2022-11-04T07:38:44.297Z,420.63
2022-11-04T07:41:11.521Z,425.13
2022-11-04T07:43:38.102Z,415.42
2022-11-04T07:46:11.009Z,409.65
2022-11-04T07:48:37.723Z,416.90
2022-11-04T07:51:06.380Z,409.08
2022-11-04T07:53:33.093Z,416.30
2022-11-04T07:56:07.319Z,404.90
2022-11-04T07:58:35.105Z,413.27
2022-11-04T08:01:07.336Z,416.15
2022-11-04T08:03:35.296Z,416.13
2022-11-04T08:06:05.090Z,424.73
2022-11-04T08:08:31.778Z,415.65
2022-11-04T08:11:11.438Z,413.63
2022-11-04T08:13:41.334Z,415.73
2022-11-04T08:16:13.200Z,415.80
2022-11-04T08:18:40.863Z,416.25
2022-11-04T08:21:08.085Z,417.30
2022-11-04T08:23:35.446Z,416.98
2022-11-04T08:26:02.078Z,421.98
2022-11-04T08:28:29.602Z,421.73
2022-11-04T08:31:04.490Z,417.00
2022-11-04T08:33:33.313Z,417.95
2022-11-04T08:36:03.294Z,414.85
2022-11-04T08:38:29.943Z,414.38
2022-11-04T08:40:59.980Z,420.40
2022-11-04T08:43:27.224Z,416.52
2022-11-04T08:45:55.415Z,415.00
2022-11-04T08:48:22.091Z,420.55
2022-11-04T08:50:54.135Z,413.15
2022-11-04T08:53:20.847Z,416.90
2022-11-04T08:55:48.027Z,420.52
2022-11-04T08:58:15.216Z,406.17
2022-11-04T09:00:41.753Z,407.40
2022-11-04T09:03:08.663Z,409.23
2022-11-04T09:05:49.007Z,423.90
2022-11-04T09:08:17.054Z,422.55
2022-11-04T09:10:47.978Z,425.42
2022-11-04T09:13:15.829Z,427.60
2022-11-04T09:15:42.845Z,417.95
2022-11-04T09:18:09.644Z,420.88
2022-11-04T09:20:39.580Z,424.17
2022-11-04T09:23:07.010Z,419.08
2022-11-04T09:25:34.522Z,425.30
2022-11-04T09:28:01.169Z,424.63
2022-11-04T09:30:27.870Z,418.48
2022-11-04T09:32:54.430Z,412.77
2022-11-04T09:35:21.114Z,432.27
2022-11-04T09:37:47.601Z,430.23
2022-11-04T09:40:17.505Z,405.73
2022-11-04T09:42:47.031Z,406.15
2022-11-04T09:45:22.200Z,416.05
2022-11-04T09:47:52.747Z,414.77
2022-11-04T09:50:47.731Z,418.25
2022-11-04T09:53:23.928Z,412.85
2022-11-04T09:56:19.700Z,407.63
2022-11-04T09:58:47.054Z,410.08
2022-11-04T10:01:38.319Z,415.40
2022-11-04T10:04:29.802Z,413.13
2022-11-04T10:07:11.421Z,411.83
2022-11-04T10:10:05.057Z,400.40
2022-11-04T10:12:40.772Z,398.53
2022-11-04T10:15:38.282Z,399.08
2022-11-04T10:18:34.262Z,398.30
2022-11-04T10:21:15.175Z,401.17
2022-11-04T10:24:09.651Z,400.98
2022-11-04T10:26:45.516Z,399.73
2022-11-04T10:29:20.562Z,409.77
2022-11-04T10:31:48.191Z,408.35
2022-11-04T10:34:47.956Z,418.77
2022-11-04T10:37:14.709Z,399.95
2022-11-04T10:39:46.558Z,400.95
2022-11-04T10:42:17.362Z,409.35
2022-11-04T10:44:46.547Z,401.83
2022-11-04T10:47:36.432Z,402.90
2022-11-04T10:50:28.494Z,405.65
2022-11-04T10:53:18.964Z,410.13
2022-11-04T10:55:54.713Z,409.42
2022-11-04T10:58:24.604Z,410.83
2022-11-04T11:00:51.953Z,410.00
2022-11-04T11:03:26.495Z,435.70
2022-11-04T11:05:54.624Z,422.27
2022-11-04T11:08:31.607Z,412.55
2022-11-04T11:10:58.614Z,410.85
2022-11-04T11:13:38.995Z,429.02
2022-11-04T11:16:20.908Z,421.65
2022-11-04T11:19:18.175Z,428.88
2022-11-04T11:21:50.565Z,422.85
2022-11-04T11:24:26.236Z,432.05
2022-11-04T11:26:55.271Z,425.02
2022-11-04T11:29:26.549Z,424.70
2022-11-04T11:31:56.515Z,427.30
2022-11-04T11:34:34.786Z,434.95
2022-11-04T11:37:05.639Z,432.20
2022-11-04T11:39:34.905Z,414.73
2022-11-04T11:42:06.293Z,416.17
2022-11-04T11:44:44.557Z,418.65
2022-11-04T11:47:21.806Z,421.38
2022-11-04T11:50:24.543Z,415.93
2022-11-04T11:52:52.861Z,409.90
2022-11-04T11:55:27.789Z,411.48
2022-11-04T12:01:30.881Z,416.25
2022-11-04T12:09:54.355Z,414.93
2022-11-04T12:12:50.319Z,413.92
2022-11-04T12:15:29.316Z,416.10
2022-11-04T12:18:11.200Z,416.42
2022-11-04T12:21:03.671Z,409.55
2022-11-04T12:23:51.123Z,401.05
2022-11-04T12:26:53.693Z,413.17
2022-11-04T12:30:03.999Z,417.58
2022-11-04T12:32:33.597Z,424.65
2022-11-04T12:35:25.306Z,418.67
2022-11-04T12:37:54.819Z,408.55
2022-11-04T12:40:30.501Z,410.45
2022-11-04T12:42:57.004Z,415.75
2022-11-04T12:45:41.797Z,412.67
2022-11-04T12:48:17.072Z,412.65
2022-11-04T12:51:37.642Z,416.70
2022-11-04T12:54:31.487Z,411.35
2022-11-04T12:57:25.800Z,410.55
2022-11-04T13:00:09.864Z,415.85
2022-11-04T13:03:10.875Z,415.83
2022-11-04T13:05:57.479Z,430.42
2022-11-04T13:08:41.489Z,433.70
2022-11-04T13:11:45.220Z,426.25
2022-11-04T13:14:19.228Z,430.53
2022-11-04T13:16:49.984Z,416.65
2022-11-04T13:19:25.551Z,415.08
2022-11-04T13:21:54.910Z,410.98
2022-11-04T13:24:33.211Z,414.00
2022-11-04T13:27:04.184Z,409.40
2022-11-04T13:29:34.487Z,404.05
2022-11-04T13:32:14.821Z,411.40
2022-11-04T13:35:21.429Z,436.35
2022-11-04T13:37:58.077Z,399.35
2022-11-04T13:40:39.827Z,414.85
2022-11-04T13:43:37.228Z,414.30
2022-11-04T13:46:26.267Z,434.83
2022-11-04T13:48:58.850Z,420.17
2022-11-04T13:51:35.585Z,423.77
2022-11-04T13:54:03.164Z,419.48
2022-11-04T13:56:36.349Z,414.08
2022-11-04T13:59:06.400Z,419.17
2022-11-04T14:01:37.510Z,402.70
2022-11-04T14:04:13.383Z,404.17
2022-11-04T14:06:53.817Z,405.70
2022-11-04T14:09:29.159Z,409.65
2022-11-04T14:12:10.982Z,412.80
2022-11-04T14:14:38.955Z,412.23
2022-11-04T14:17:34.288Z,410.77
2022-11-04T14:20:11.488Z,411.13
2022-11-04T14:22:44.128Z,413.50
2022-11-04T14:25:29.618Z,411.38
2022-11-04T14:28:01.951Z,406.55
2022-11-04T14:31:08.156Z,408.65
2022-11-04T14:33:51.787Z,416.98
2022-11-04T14:36:21.268Z,408.80
2022-11-04T14:38:59.612Z,405.08
2022-11-04T14:41:29.039Z,406.42
2022-11-04T14:43:59.094Z,413.13
2022-11-04T14:46:31.596Z,413.85
2022-11-04T14:49:01.752Z,422.67
2022-11-04T14:51:33.298Z,419.95
2022-11-04T14:54:13.156Z,415.83
2022-11-04T14:56:41.531Z,418.50
2022-11-04T14:59:18.665Z,429.87
2022-11-04T15:01:45.658Z,421.38
2022-11-04T15:04:27.364Z,416.13
2022-11-04T15:06:55.901Z,419.20
2022-11-04T15:09:25.476Z,420.55
2022-11-04T15:12:20.806Z,429.48
2022-11-04T15:14:47.488Z,408.63
2022-11-04T15:17:20.588Z,410.17
2022-11-04T15:19:50.960Z,404.42
2022-11-04T15:22:18.937Z,420.15
2022-11-04T15:25:17.477Z,415.63
2022-11-04T15:27:44.930Z,407.77
2022-11-04T15:30:26.665Z,405.63
2022-11-04T15:33:07.804Z,403.90
2022-11-04T15:35:35.526Z,386.10
2022-11-04T15:38:03.738Z,382.35
2022-11-04T15:40:39.816Z,389.50
2022-11-04T15:43:07.177Z,393.92
2022-11-04T15:45:56.136Z,396.30
2022-11-04T15:48:33.996Z,390.75
2022-11-04T15:51:21.460Z,393.00
2022-11-04T15:53:52.859Z,385.33
2022-11-04T15:56:41.496Z,388.35
2022-11-04T15:59:18.532Z,404.70
2022-11-04T16:01:50.385Z,393.13
2022-11-04T16:04:20.039Z,401.95
2022-11-04T16:06:49.175Z,389.10
2022-11-04T16:09:15.696Z,408.15
2022-11-04T16:12:09.224Z,382.93
2022-11-04T16:14:36.143Z,382.45
2022-11-04T16:17:03.317Z,395.63
2022-11-04T16:19:32.125Z,393.52
2022-11-04T16:22:09.699Z,378.50
2022-11-04T16:24:41.578Z,375.10
2022-11-04T16:27:10.691Z,385.97
2022-11-04T16:29:39.904Z,383.13
2022-11-04T16:32:39.497Z,363.85
2022-11-04T16:35:14.121Z,371.98
2022-11-04T16:37:40.784Z,370.55
2022-11-04T16:40:08.087Z,367.30
2022-11-04T16:42:34.787Z,391.25
2022-11-04T16:45:03.358Z,386.80
2022-11-04T16:47:30.964Z,376.25
2022-11-04T16:50:01.962Z,384.05
2022-11-04T16:52:28.730Z,380.55
2022-11-04T16:54:56.281Z,382.15
2022-11-04T16:57:24.491Z,379.67
2022-11-04T16:59:51.187Z,377.00
2022-11-04T17:02:28.216Z,387.58
2022-11-04T17:04:55.100Z,401.17
2022-11-04T17:07:30.476Z,400.13
2022-11-04T17:10:19.986Z,395.60
2022-11-04T17:12:47.141Z,391.80
2022-11-04T17:15:15.340Z,392.13
2022-11-04T17:17:42.538Z,391.67
2022-11-04T17:20:13.968Z,393.83
2022-11-04T17:22:41.142Z,380.55
2022-11-04T17:25:21.308Z,381.52
2022-11-04T17:27:48.803Z,387.77
2022-11-04T17:30:16.922Z,384.20
2022-11-04T17:32:45.000Z,385.27
2022-11-04T17:35:12.459Z,383.08
2022-11-04T17:37:39.097Z,389.83
2022-11-04T17:40:07.406Z,403.63
2022-11-04T17:42:52.722Z,402.80
2022-11-04T17:45:19.499Z,411.08
2022-11-04T17:47:46.469Z,411.35
2022-11-04T17:50:13.996Z,411.63
2022-11-04T17:53:05.912Z,403.30
2022-11-04T17:55:38.756Z,401.15
2022-11-04T17:58:05.291Z,391.98
2022-11-04T18:00:31.888Z,400.75
2022-11-04T18:02:58.437Z,391.02
2022-11-04T18:05:25.031Z,390.35
2022-11-04T18:07:53.752Z,383.67
2022-11-04T18:10:20.509Z,384.02
2022-11-04T18:12:47.185Z,390.65
2022-11-04T18:15:17.046Z,396.50
2022-11-04T18:17:45.503Z,388.30
2022-11-04T18:20:15.370Z,390.05
2022-11-04T18:22:42.880Z,397.15
2022-11-04T18:25:10.364Z,393.08
2022-11-04T18:27:37.192Z,380.77
2022-11-04T18:30:06.666Z,394.80
2022-11-04T18:32:33.443Z,394.40
2022-11-04T18:35:09.147Z,383.40
2022-11-04T18:37:35.860Z,386.90
2022-11-04T18:40:02.577Z,393.80
2022-11-04T18:42:29.210Z,399.37
2022-11-04T18:44:55.852Z,407.38
2022-11-04T18:47:24.009Z,402.23
2022-11-04T18:49:50.804Z,397.73
2022-11-04T18:52:17.376Z,396.75
2022-11-04T18:54:44.546Z,399.63
2022-11-04T18:57:11.985Z,398.85
2022-11-04T18:59:38.840Z,405.95
2022-11-04T19:02:06.724Z,393.42
2022-11-04T19:04:33.658Z,395.67
2022-11-04T19:07:00.284Z,406.15
2022-11-04T19:12:32.132Z,381.77
2022-11-04T19:14:58.757Z,380.75
2022-11-04T19:17:25.404Z,350.55
2022-11-04T19:19:51.991Z,337.90
2022-11-04T19:22:18.608Z,325.48
2022-11-04T19:24:46.024Z,320.90
2022-11-04T19:27:12.730Z,313.90
2022-11-04T19:29:39.543Z,321.20
2022-11-04T19:32:11.045Z,327.10
2022-11-04T19:34:39.516Z,317.00
2022-11-04T19:37:06.112Z,320.80
2022-11-04T19:39:32.733Z,313.07
2022-11-04T19:42:17.843Z,305.75
2022-11-04T19:44:44.487Z,298.25
2022-11-04T19:47:11.150Z,300.70
2022-11-04T19:49:37.774Z,273.50
2022-11-04T19:52:04.677Z,294.92
2022-11-04T19:54:31.313Z,319.05
2022-11-04T19:56:58.033Z,302.70
2022-11-04T19:59:25.557Z,291.80
2022-11-04T20:01:52.369Z,267.75
2022-11-04T20:04:19.278Z,271.35
2022-11-04T20:06:46.081Z,269.90
2022-11-04T20:09:12.863Z,285.88
2022-11-04T20:12:00.562Z,270.73
2022-11-04T20:14:28.785Z,263.10
2022-11-04T20:16:56.778Z,254.15
2022-11-04T20:19:23.693Z,268.43
2022-11-04T20:21:52.185Z,253.55
2022-11-04T20:24:30.752Z,250.55
2022-11-04T20:27:02.712Z,271.63
2022-11-04T20:29:29.740Z,271.58
2022-11-04T20:31:56.896Z,283.75
2022-11-04T20:34:27.621Z,282.67
2022-11-04T20:36:56.997Z,288.35
2022-11-04T20:39:23.831Z,306.33
2022-11-04T20:42:08.209Z,331.35
2022-11-04T20:44:34.909Z,306.37
2022-11-04T20:47:01.695Z,306.08
2022-11-04T20:49:53.610Z,328.60
2022-11-04T20:52:20.455Z,320.70
2022-11-04T20:54:47.112Z,331.33
2022-11-04T20:57:13.912Z,320.88
2022-11-04T20:59:40.794Z,337.75
2022-11-04T21:02:08.729Z,349.08
2022-11-04T21:04:36.513Z,350.37
2022-11-04T21:07:03.596Z,339.77
2022-11-04T21:09:30.537Z,354.20
2022-11-04T21:11:58.265Z,323.58
2022-11-04T21:14:24.944Z,310.37
2022-11-04T21:16:51.640Z,324.38
2022-11-04T21:19:20.070Z,312.85
2022-11-04T21:21:47.470Z,325.45
2022-11-04T21:24:16.037Z,325.88
2022-11-04T21:26:43.857Z,325.17
2022-11-04T21:29:14.080Z,344.50
2022-11-04T21:31:44.336Z,340.67
2022-11-04T21:34:11.276Z,345.88
2022-11-04T21:36:39.572Z,336.80
2022-11-04T21:39:06.412Z,333.58
2022-11-04T21:41:33.786Z,340.33
2022-11-04T21:44:02.218Z,338.88
2022-11-04T21:46:31.251Z,357.67
2022-11-04T21:48:58.882Z,362.20
2022-11-04T21:51:29.094Z,351.47
2022-11-04T21:53:56.517Z,359.23
2022-11-04T21:56:29.938Z,356.53
2022-11-04T21:58:56.862Z,360.45
2022-11-04T22:04:16.571Z,369.42
2022-11-04T22:06:43.229Z,373.52
2022-11-04T22:09:09.877Z,382.90
2022-11-04T22:11:39.062Z,386.65
2022-11-04T22:14:08.141Z,386.65
2022-11-04T22:16:36.934Z,395.85
2022-11-04T22:19:05.677Z,383.75
2022-11-04T22:21:33.118Z,384.30
2022-11-04T22:24:00.641Z,395.08
2022-11-04T22:26:29.840Z,403.93
2022-11-04T22:28:56.783Z,400.88
2022-11-04T22:31:25.256Z,395.80
2022-11-04T22:33:52.702Z,404.15
2022-11-04T22:36:20.039Z,390.30
2022-11-04T22:38:47.037Z,394.95
2022-11-04T22:41:17.723Z,404.52
2022-11-04T22:43:47.535Z,396.97
2022-11-04T22:46:25.714Z,403.63
2022-11-04T22:48:52.520Z,402.05
2022-11-04T22:51:19.895Z,393.30
2022-11-04T22:53:48.996Z,398.38
2022-11-04T22:56:19.382Z,393.38
2022-11-04T22:58:46.107Z,393.75
2022-11-04T23:01:15.210Z,401.05
2022-11-04T23:03:42.169Z,393.02
2022-11-04T23:06:10.297Z,394.43
2022-11-04T23:08:37.731Z,385.02
2022-11-04T23:11:27.089Z,401.38
2022-11-04T23:14:20.432Z,403.60
2022-11-04T23:17:09.325Z,406.67
2022-11-04T23:19:37.589Z,413.17
2022-11-04T23:22:23.087Z,416.10
2022-11-04T23:25:10.872Z,427.00
2022-11-04T23:28:01.578Z,429.40
2022-11-04T23:30:31.959Z,437.42
2022-11-04T23:33:04.619Z,445.60
2022-11-04T23:35:56.463Z,435.48
2022-11-04T23:38:24.106Z,434.73
2022-11-04T23:41:13.365Z,435.40
2022-11-04T23:43:40.146Z,430.85
2022-11-04T23:46:25.249Z,428.30
2022-11-04T23:49:10.344Z,427.55
2022-11-04T23:51:55.485Z,432.00
2022-11-04T23:54:40.822Z,427.10
2022-11-04T23:57:36.850Z,419.63
